Time;durP1;ratioP1;P1;durP2;ratioP2;P2;SDS_P1;SDS_P2;PMS_P1;PMS_P2;Temp;Humidity;BMP_temperature;BMP_pressure;BME280_temperature;BME280_humidity;BME280_pressure;Samples;Min_cycle;Max_cycle;Signal;HPM_P1;HPM_P2
2022/08/31 00:04:11;;;;;;;9.18;3.03;;;16.20;57.00;;;;;;5034574;28;20144;-70
2022/08/31 00:06:38;;;;;;;10.70;3.38;;;16.20;56.70;;;;;;5032878;28;20611;-70
2022/08/31 00:09:06;;;;;;;13.35;4.15;;;16.10;56.60;;;;;;5033347;28;20107;-70
2022/08/31 00:11:34;;;;;;;8.80;2.42;;;16.10;56.60;;;;;;5035369;28;20406;-70
2022/08/31 00:14:07;;;;;;;12.98;4.15;;;16.10;56.50;;;;;;5039359;28;20025;-70
2022/08/31 00:16:37;;;;;;;5.40;2.95;;;16.10;56.40;;;;;;5032937;28;20528;-70
2022/08/31 00:19:03;;;;;;;8.82;2.75;;;16.10;56.40;;;;;;5031481;28;20503;-70
2022/08/31 00:21:30;;;;;;;7.63;3.00;;;16.10;56.30;;;;;;5039375;28;20561;-70
2022/08/31 00:23:57;;;;;;;12.40;3.60;;;16.10;56.30;;;;;;5031783;28;20025;-70
2022/08/31 00:26:24;;;;;;;11.18;3.08;;;16.00;56.20;;;;;;5029445;28;20033;-70
2022/08/31 00:28:51;;;;;;;10.80;2.75;;;16.00;56.20;;;;;;5039648;28;20036;-70
2022/08/31 00:31:18;;;;;;;12.55;3.65;;;16.00;56.10;;;;;;5036046;28;20432;-70
2022/08/31 00:33:51;;;;;;;9.15;2.65;;;16.00;56.20;;;;;;5036735;28;20516;-70
2022/08/31 00:36:20;;;;;;;12.15;3.70;;;16.00;56.50;;;;;;5031727;28;20561;-69
2022/08/31 00:38:48;;;;;;;7.03;2.05;;;16.00;56.60;;;;;;5036462;28;20452;-69
2022/08/31 00:41:17;;;;;;;8.40;2.78;;;16.00;56.60;;;;;;5033477;28;20030;-69
2022/08/31 00:43:43;;;;;;;8.52;3.78;;;15.90;56.50;;;;;;5035130;28;20479;-69
2022/08/31 00:46:12;;;;;;;8.50;3.22;;;15.90;56.40;;;;;;5034929;28;20112;-70
2022/08/31 00:49:01;;;;;;;11.60;3.45;;;15.90;56.40;;;;;;5037525;28;20029;-68
2022/08/31 00:51:30;;;;;;;7.65;3.90;;;15.90;56.50;;;;;;5033789;28;20013;-69
2022/08/31 00:53:57;;;;;;;9.52;3.03;;;15.80;56.50;;;;;;5031430;28;20026;-70
2022/08/31 00:56:24;;;;;;;7.80;3.13;;;15.80;56.60;;;;;;5031970;28;20432;-68
2022/08/31 00:58:51;;;;;;;8.52;2.70;;;15.80;56.60;;;;;;5041376;28;20067;-70
2022/08/31 01:01:19;;;;;;;10.25;3.70;;;15.70;56.60;;;;;;5032399;28;20026;-70
2022/08/31 01:03:47;;;;;;;8.50;2.80;;;15.80;56.60;;;;;;5034733;28;20087;-69
2022/08/31 01:06:16;;;;;;;9.93;2.63;;;15.80;56.40;;;;;;5029063;28;20053;-70
2022/08/31 01:08:44;;;;;;;7.22;2.88;;;15.70;56.30;;;;;;5038129;28;20029;-70
2022/08/31 01:11:11;;;;;;;10.60;2.85;;;15.70;56.30;;;;;;5030307;28;20018;-70
2022/08/31 01:13:38;;;;;;;15.75;4.38;;;15.70;56.30;;;;;;5036752;28;20033;-70
2022/08/31 01:16:11;;;;;;;12.40;6.10;;;15.70;56.30;;;;;;5033615;28;20096;-69
2022/08/31 01:18:39;;;;;;;7.80;3.15;;;15.60;56.20;;;;;;5036012;28;20127;-70
2022/08/31 01:21:27;;;;;;;13.90;4.35;;;15.60;56.20;;;;;;5030938;28;20468;-70
2022/08/31 01:23:58;;;;;;;9.98;3.55;;;15.60;56.40;;;;;;5033491;28;20752;-70
2022/08/31 01:26:27;;;;;;;10.38;3.38;;;15.60;56.30;;;;;;5034503;28;20022;-70
2022/08/31 01:28:58;;;;;;;6.20;3.05;;;15.60;56.30;;;;;;5030705;28;20040;-70
2022/08/31 01:31:36;;;;;;;8.55;3.40;;;15.60;56.30;;;;;;5031085;28;20497;-70
2022/08/31 01:34:04;;;;;;;12.57;3.60;;;15.60;56.10;;;;;;5035948;28;20115;-71
2022/08/31 01:36:31;;;;;;;11.38;3.97;;;15.60;56.10;;;;;;5032753;28;20060;-69
2022/08/31 01:38:58;;;;;;;12.05;4.68;;;15.60;56.00;;;;;;5034822;28;20087;-71
2022/08/31 01:41:24;;;;;;;9.77;3.80;;;15.50;56.00;;;;;;5033529;28;20026;-71
2022/08/31 01:43:54;;;;;;;10.40;3.72;;;15.50;56.10;;;;;;5030079;28;20025;-70
2022/08/31 01:46:21;;;;;;;18.52;6.57;;;15.50;56.00;;;;;;5032406;28;20036;-70
2022/08/31 01:48:48;;;;;;;9.75;3.78;;;15.50;56.00;;;;;;5037263;28;20553;-71
2022/08/31 01:51:17;;;;;;;11.13;4.15;;;15.50;56.00;;;;;;5036840;28;20087;-71
2022/08/31 01:53:47;;;;;;;10.10;3.45;;;15.50;56.00;;;;;;5027970;28;20168;-70
2022/08/31 01:56:16;;;;;;;8.80;4.07;;;15.50;56.00;;;;;;5028175;28;20372;-71
2022/08/31 01:58:43;;;;;;;12.63;4.35;;;15.40;56.00;;;;;;5037925;28;20589;-70
2022/08/31 02:01:10;;;;;;;8.40;4.30;;;15.40;56.50;;;;;;5033634;28;20028;-71
2022/08/31 02:03:36;;;;;;;13.00;4.53;;;15.40;56.70;;;;;;5029784;28;20048;-70
2022/08/31 02:06:07;;;;;;;8.68;4.25;;;15.40;56.60;;;;;;5036268;28;20463;-70
2022/08/31 02:08:35;;;;;;;11.57;4.38;;;15.40;56.40;;;;;;5034005;28;20041;-70
2022/08/31 02:11:01;;;;;;;14.70;5.45;;;15.40;56.20;;;;;;5023646;28;20025;-70
2022/08/31 02:13:28;;;;;;;17.25;4.82;;;15.30;56.10;;;;;;5036692;28;20029;-70
2022/08/31 02:15:54;;;;;;;8.57;3.78;;;15.30;56.00;;;;;;5027298;28;20534;-70
2022/08/31 02:18:21;;;;;;;11.60;4.95;;;15.30;56.00;;;;;;5031734;28;20034;-70
2022/08/31 02:20:47;;;;;;;10.63;4.32;;;15.30;55.70;;;;;;5043720;28;20032;-71
2022/08/31 02:23:16;;;;;;;16.85;4.97;;;15.30;55.50;;;;;;5032692;28;20120;-69
2022/08/31 02:25:42;;;;;;;16.20;4.60;;;15.30;56.00;;;;;;5039012;28;20026;-70
2022/08/31 02:28:12;;;;;;;11.23;5.15;;;15.30;55.80;;;;;;5033296;28;20420;-70
2022/08/31 02:30:40;;;;;;;10.55;4.65;;;15.30;55.60;;;;;;5039520;28;20041;-69
2022/08/31 02:33:07;;;;;;;13.30;5.70;;;15.20;55.50;;;;;;5029919;28;20036;-70
2022/08/31 02:35:34;;;;;;;13.52;5.18;;;15.20;55.70;;;;;;5034372;28;20396;-70
2022/08/31 02:38:01;;;;;;;12.85;4.90;;;15.20;55.60;;;;;;5029082;28;20033;-70
2022/08/31 02:40:28;;;;;;;12.30;4.40;;;15.20;55.40;;;;;;5032943;28;20100;-70
2022/08/31 02:42:55;;;;;;;18.67;6.00;;;15.20;55.30;;;;;;5027298;28;20029;-70
2022/08/31 02:45:22;;;;;;;11.68;5.40;;;15.20;55.90;;;;;;5037797;28;20162;-70
2022/08/31 02:47:50;;;;;;;8.43;4.38;;;15.20;55.20;;;;;;5032036;28;20112;-70
2022/08/31 02:50:17;;;;;;;11.50;4.43;;;15.20;55.10;;;;;;5032109;28;20396;-71
2022/08/31 02:52:45;;;;;;;10.10;4.63;;;15.10;55.00;;;;;;5033848;28;20461;-71
2022/08/31 02:55:12;;;;;;;9.20;5.78;;;15.10;55.00;;;;;;5038485;28;20025;-70
2022/08/31 02:57:38;;;;;;;11.57;4.40;;;15.10;55.00;;;;;;5036420;28;20033;-71
2022/08/31 03:00:07;;;;;;;13.70;5.10;;;15.10;55.00;;;;;;5028948;28;20384;-70
2022/08/31 03:02:34;;;;;;;7.65;3.40;;;15.10;55.00;;;;;;5029361;28;20029;-70
2022/08/31 03:05:02;;;;;;;14.18;4.85;;;15.00;54.90;;;;;;5035447;28;20174;-70
2022/08/31 03:07:32;;;;;;;10.30;3.60;;;15.10;54.90;;;;;;5030905;28;20063;-70
2022/08/31 03:09:59;;;;;;;9.00;4.30;;;15.10;54.90;;;;;;5033502;28;20148;-70
2022/08/31 03:12:26;;;;;;;15.70;5.93;;;15.10;55.30;;;;;;5032938;28;20022;-70
2022/08/31 03:14:52;;;;;;;11.35;4.05;;;15.00;55.40;;;;;;5032575;28;20898;-70
2022/08/31 03:17:19;;;;;;;11.70;5.43;;;15.00;55.40;;;;;;5031656;28;20029;-69
2022/08/31 03:19:45;;;;;;;13.25;3.45;;;15.00;55.50;;;;;;5029294;28;20037;-70
2022/08/31 03:22:13;;;;;;;9.98;3.80;;;15.00;55.20;;;;;;5036574;28;20120;-70
2022/08/31 03:24:40;;;;;;;9.00;4.00;;;15.00;54.50;;;;;;5034213;28;20040;-70
2022/08/31 03:27:06;;;;;;;8.80;3.58;;;15.00;54.20;;;;;;5035163;28;20021;-69
2022/08/31 03:29:33;;;;;;;6.90;2.90;;;14.90;53.90;;;;;;5030884;28;20448;-68
2022/08/31 03:32:01;;;;;;;6.10;4.22;;;14.90;53.80;;;;;;5029681;28;20025;-69
2022/08/31 03:34:27;;;;;;;10.43;2.67;;;14.90;53.70;;;;;;5038939;28;20539;-69
2022/08/31 03:36:54;;;;;;;7.32;2.88;;;14.90;53.70;;;;;;5034152;28;20034;-69
2022/08/31 03:39:20;;;;;;;10.10;3.08;;;14.90;53.70;;;;;;5033061;28;20041;-69
2022/08/31 03:41:47;;;;;;;10.02;2.40;;;14.90;54.00;;;;;;5023672;28;20119;-70
2022/08/31 03:44:13;;;;;;;11.45;4.00;;;14.90;53.70;;;;;;5033487;28;20025;-69
2022/08/31 03:46:43;;;;;;;13.18;3.92;;;14.90;54.00;;;;;;5032004;28;20112;-69
2022/08/31 03:49:11;;;;;;;34.90;19.20;;;14.80;54.00;;;;;;5035173;28;20066;-70
2022/08/31 03:51:37;;;;;;;25.55;13.43;;;14.80;54.20;;;;;;5034287;28;20516;-71
2022/08/31 03:54:04;;;;;;;13.98;7.78;;;14.80;54.10;;;;;;5028982;28;20132;-70
2022/08/31 03:56:31;;;;;;;14.30;5.13;;;14.80;53.80;;;;;;5034048;28;20034;-70
2022/08/31 03:58:57;;;;;;;13.07;3.85;;;14.80;53.90;;;;;;5029995;28;20409;-71
2022/08/31 04:01:24;;;;;;;11.77;3.38;;;14.80;54.20;;;;;;5034434;28;20025;-71
2022/08/31 04:03:50;;;;;;;17.13;3.58;;;14.80;54.60;;;;;;5036131;28;20044;-70
2022/08/31 04:06:17;;;;;;;15.70;2.33;;;14.80;54.20;;;;;;5037363;28;20026;-71
2022/08/31 04:08:43;;;;;;;11.60;2.80;;;14.80;53.80;;;;;;5032665;28;20018;-70
2022/08/31 04:11:15;;;;;;;16.27;4.18;;;14.80;54.50;;;;;;5034170;28;20480;-70
2022/08/31 04:13:42;;;;;;;8.98;2.33;;;14.80;54.60;;;;;;5033308;28;20522;-70
2022/08/31 04:16:11;;;;;;;6.63;2.97;;;14.80;54.60;;;;;;5026785;28;20029;-70
2022/08/31 04:18:43;;;;;;;10.07;5.32;;;14.80;54.70;;;;;;5034871;28;20036;-70
2022/08/31 04:21:21;;;;;;;12.10;5.50;;;14.80;54.70;;;;;;5035116;28;20484;-71
2022/08/31 04:23:49;;;;;;;16.25;4.90;;;14.70;54.40;;;;;;5031999;28;20495;-71
2022/08/31 04:26:22;;;;;;;8.45;3.30;;;14.80;54.20;;;;;;5030558;28;20061;-70
2022/08/31 04:28:49;;;;;;;11.55;4.13;;;14.80;54.20;;;;;;5034625;28;20491;-68
2022/08/31 04:31:16;;;;;;;26.75;17.73;;;14.80;53.90;;;;;;5038365;28;20028;-70
2022/08/31 04:33:43;;;;;;;32.97;18.75;;;14.70;54.60;;;;;;5031458;28;20036;-70
2022/08/31 04:36:18;;;;;;;22.63;12.93;;;14.70;54.90;;;;;;5034473;28;20100;-70
2022/08/31 04:38:46;;;;;;;;;;;14.70;54.30;;;;;;5030296;28;20037;-70
2022/08/31 04:41:15;;;;;;;8.65;4.50;;;14.70;54.10;;;;;;5035582;28;19952;-71
2022/08/31 04:43:45;;;;;;;10.60;4.30;;;14.70;53.80;;;;;;5034829;28;20026;-71
2022/08/31 04:46:12;;;;;;;12.60;2.85;;;14.70;53.60;;;;;;5036070;28;20117;-71
2022/08/31 04:48:39;;;;;;;7.28;2.72;;;14.70;53.70;;;;;;5028755;28;20408;-70
2022/08/31 04:51:12;;;;;;;5.38;2.58;;;14.70;53.70;;;;;;5028097;28;20020;-70
2022/08/31 04:53:39;;;;;;;7.80;2.72;;;14.70;53.50;;;;;;5034980;28;20025;-71
2022/08/31 04:56:12;;;;;;;7.10;1.98;;;14.70;53.90;;;;;;5033316;28;20573;-72
2022/08/31 04:58:40;;;;;;;11.43;2.53;;;14.60;53.90;;;;;;5033307;28;20049;-72
2022/08/31 05:01:11;;;;;;;12.77;3.80;;;14.60;53.10;;;;;;5033147;28;20064;-71
2022/08/31 05:03:39;;;;;;;21.60;3.53;;;14.60;53.90;;;;;;5028014;28;20116;-72
2022/08/31 05:06:11;;;;;;;9.73;2.25;;;14.60;54.20;;;;;;5031487;28;20477;-72
2022/08/31 05:08:38;;;;;;;8.10;3.38;;;14.60;54.30;;;;;;5030792;28;20480;-71
2022/08/31 05:11:12;;;;;;;4.32;2.08;;;14.60;54.50;;;;;;5034601;28;20022;-71
2022/08/31 05:13:38;;;;;;;17.05;2.95;;;14.60;54.80;;;;;;5035727;28;20041;-72
2022/08/31 05:16:07;;;;;;;10.30;2.65;;;14.60;54.70;;;;;;5039687;28;20026;-71
2022/08/31 05:18:33;;;;;;;8.63;2.63;;;14.50;54.70;;;;;;5031368;28;20054;-72
2022/08/31 05:21:27;;;;;;;8.23;2.88;;;14.50;54.80;;;;;;5028723;28;20022;-72
2022/08/31 05:23:58;;;;;;;10.40;2.90;;;14.50;54.80;;;;;;5037046;28;20051;-71
2022/08/31 05:26:29;;;;;;;10.73;2.92;;;14.50;54.80;;;;;;5033219;28;20469;-71
2022/08/31 05:28:56;;;;;;;12.50;2.83;;;14.50;54.70;;;;;;5038619;28;20021;-72
2022/08/31 05:31:23;;;;;;;7.90;2.65;;;14.50;54.60;;;;;;5029466;28;20064;-72
2022/08/31 05:33:50;;;;;;;4.50;2.03;;;14.50;54.60;;;;;;5038544;28;20036;-72
2022/08/31 05:36:17;;;;;;;6.20;2.33;;;14.50;54.50;;;;;;5038259;28;20048;-72
2022/08/31 05:38:43;;;;;;;9.82;2.15;;;14.50;54.60;;;;;;5027851;28;20045;-72
2022/08/31 05:41:10;;;;;;;7.93;3.22;;;14.50;54.60;;;;;;5034701;28;20109;-72
2022/08/31 05:43:38;;;;;;;8.38;3.50;;;14.50;54.40;;;;;;5033916;28;20139;-72
2022/08/31 05:46:09;;;;;;;9.07;3.25;;;14.50;53.90;;;;;;5036191;28;20028;-71
2022/08/31 05:48:37;;;;;;;13.82;3.35;;;14.50;53.60;;;;;;5033409;28;20025;-72
2022/08/31 05:51:06;;;;;;;4.22;2.47;;;14.50;53.80;;;;;;5031157;28;20425;-72
2022/08/31 05:53:33;;;;;;;7.43;2.88;;;14.50;53.50;;;;;;5036039;28;20057;-72
2022/08/31 05:56:12;;;;;;;14.88;3.33;;;14.50;53.20;;;;;;5038414;28;20033;-73
2022/08/31 05:58:40;;;;;;;15.05;3.78;;;14.50;53.00;;;;;;5033060;28;20088;-72
2022/08/31 06:01:35;;;;;;;9.07;3.20;;;14.50;53.00;;;;;;5026937;28;20469;-71
2022/08/31 06:04:02;;;;;;;5.15;3.38;;;14.50;52.90;;;;;;5030571;28;20038;-72
2022/08/31 06:06:29;;;;;;;6.32;3.10;;;14.50;53.00;;;;;;5035741;28;20052;-72
2022/08/31 06:08:56;;;;;;;10.40;3.65;;;14.50;53.00;;;;;;5030599;28;20107;-72
2022/08/31 06:11:26;;;;;;;11.43;3.45;;;14.50;53.10;;;;;;5034183;28;20117;-72
2022/08/31 06:13:54;;;;;;;10.88;3.58;;;14.50;53.10;;;;;;5039510;28;20488;-72
2022/08/31 06:16:22;;;;;;;7.88;4.10;;;14.50;53.20;;;;;;5030520;28;20533;-72
2022/08/31 06:18:49;;;;;;;13.50;3.17;;;14.50;53.30;;;;;;5033373;28;20483;-72
2022/08/31 06:21:26;;;;;;;10.10;4.13;;;14.50;53.50;;;;;;5032106;28;20471;-71
2022/08/31 06:23:56;;;;;;;15.75;3.80;;;14.50;53.60;;;;;;5034265;28;20075;-72
2022/08/31 06:26:24;;;;;;;9.90;4.07;;;14.50;53.80;;;;;;5032824;28;20439;-71
2022/08/31 06:28:53;;;;;;;11.88;3.97;;;14.50;54.10;;;;;;5031895;28;20036;-73
2022/08/31 06:31:29;;;;;;;7.40;3.50;;;14.60;54.20;;;;;;5035133;28;20357;-73
2022/08/31 06:33:57;;;;;;;10.32;3.75;;;14.60;54.20;;;;;;5030224;28;20112;-71
2022/08/31 06:36:26;;;;;;;10.27;3.63;;;14.60;54.20;;;;;;5036519;28;20053;-72
2022/08/31 06:38:54;;;;;;;10.07;4.10;;;14.60;54.20;;;;;;5035112;28;20075;-72
2022/08/31 06:41:40;;;;;;;14.05;3.63;;;14.70;54.20;;;;;;5031304;28;20113;-72
2022/08/31 06:44:10;;;;;;;8.15;4.25;;;14.70;54.10;;;;;;5032029;28;20026;-72
2022/08/31 06:46:38;;;;;;;8.57;3.95;;;14.70;54.20;;;;;;5038060;28;20025;-72
2022/08/31 06:49:05;;;;;;;8.52;3.97;;;14.70;54.00;;;;;;5027385;28;20029;-71
2022/08/31 06:51:35;;;;;;;10.32;3.83;;;14.70;53.90;;;;;;5033942;28;20053;-72
2022/08/31 06:54:04;;;;;;;10.15;3.58;;;14.80;53.80;;;;;;5029097;28;20053;-71
2022/08/31 06:56:30;;;;;;;8.93;3.33;;;14.80;53.70;;;;;;5032787;28;20163;-71
2022/08/31 06:58:59;;;;;;;24.55;5.13;;;14.90;53.70;;;;;;5030056;28;20037;-72
2022/08/31 07:01:27;;;;;;;6.78;2.90;;;14.90;53.80;;;;;;5028284;28;20033;-70
2022/08/31 07:03:55;;;;;;;12.95;4.25;;;14.90;53.80;;;;;;5033317;28;20079;-72
2022/08/31 07:06:24;;;;;;;8.60;3.30;;;15.00;53.80;;;;;;5037131;28;20021;-72
2022/08/31 07:08:55;;;;;;;18.27;3.58;;;15.00;54.10;;;;;;5032580;28;20033;-70
2022/08/31 07:11:33;;;;;;;12.75;3.15;;;15.10;54.70;;;;;;5032871;28;20034;-71
2022/08/31 07:14:01;;;;;;;8.55;4.32;;;15.10;54.70;;;;;;5031341;28;20068;-71
2022/08/31 07:16:28;;;;;;;12.48;3.72;;;15.10;54.80;;;;;;5038123;28;20025;-72
2022/08/31 07:18:58;;;;;;;12.68;3.60;;;15.20;54.80;;;;;;5038843;28;20041;-70
2022/08/31 07:21:29;;;;;;;6.20;3.00;;;15.20;54.60;;;;;;5041788;28;20022;-71
2022/08/31 07:23:59;;;;;;;11.15;3.10;;;15.30;54.60;;;;;;5040841;28;20017;-71
2022/08/31 07:26:36;;;;;;;5.28;2.63;;;15.30;54.50;;;;;;5035398;28;20025;-71
2022/08/31 07:29:05;;;;;;;11.65;3.45;;;15.30;54.30;;;;;;5039299;28;20138;-72
2022/08/31 07:31:45;;;;;;;8.45;2.95;;;15.30;54.20;;;;;;5028336;28;20072;-72
2022/08/31 07:34:15;;;;;;;8.45;2.60;;;15.40;54.20;;;;;;5031606;28;20032;-71
2022/08/31 07:42:36;;;;;;;5.78;1.73;;;15.50;53.80;;;;;;5035984;28;20515;-72
2022/08/31 07:45:06;;;;;;;8.30;2.97;;;15.60;53.50;;;;;;5033417;28;20502;-69
2022/08/31 07:47:33;;;;;;;5.28;2.50;;;15.60;53.30;;;;;;5042550;28;20412;-71
2022/08/31 07:50:00;;;;;;;10.27;1.92;;;15.70;53.30;;;;;;5039677;28;20018;-71
2022/08/31 07:52:30;;;;;;;7.32;1.95;;;15.70;53.30;;;;;;5031105;28;20032;-72
2022/08/31 07:55:05;;;;;;;8.65;2.08;;;15.80;53.90;;;;;;5032315;28;20392;-72
2022/08/31 07:57:36;;;;;;;7.45;2.75;;;16.00;53.70;;;;;;5036856;28;20114;-71
2022/08/31 08:00:07;;;;;;;10.82;2.63;;;16.00;53.70;;;;;;5038956;28;20045;-72
2022/08/31 08:02:38;;;;;;;13.50;3.92;;;16.10;53.40;;;;;;5030666;28;20029;-71
2022/08/31 08:05:07;;;;;;;9.85;2.15;;;16.20;52.90;;;;;;5035365;28;20147;-72
2022/08/31 08:07:35;;;;;;;7.90;2.72;;;16.30;52.60;;;;;;5028200;28;20514;-71
2022/08/31 08:10:05;;;;;;;10.90;2.58;;;16.40;52.60;;;;;;5033860;28;20180;-71
2022/08/31 08:12:35;;;;;;;5.68;1.90;;;16.50;52.50;;;;;;5026340;28;20124;-71
2022/08/31 08:15:04;;;;;;;6.70;1.98;;;16.50;52.70;;;;;;5036917;28;20182;-71
2022/08/31 08:17:31;;;;;;;10.98;2.22;;;16.60;52.80;;;;;;5034415;28;20111;-72
2022/08/31 08:19:57;;;;;;;7.18;1.73;;;16.60;52.00;;;;;;5030154;28;20034;-70
2022/08/31 08:22:25;;;;;;;14.85;2.53;;;16.70;51.80;;;;;;5036849;28;20171;-71
2022/08/31 08:24:51;;;;;;;9.30;2.90;;;16.70;50.80;;;;;;5035283;28;20028;-71
2022/08/31 08:27:18;;;;;;;6.57;1.95;;;16.70;50.50;;;;;;5033368;28;20369;-71
2022/08/31 08:29:44;;;;;;;10.90;2.28;;;16.80;50.80;;;;;;5029498;28;20456;-72
2022/08/31 08:32:11;;;;;;;8.50;2.10;;;16.80;50.80;;;;;;5032447;28;20075;-72
2022/08/31 08:34:43;;;;;;;11.30;2.38;;;16.80;50.50;;;;;;5037834;28;20799;-71
2022/08/31 08:37:11;;;;;;;7.22;2.80;;;16.90;50.30;;;;;;5027503;28;20029;-72
2022/08/31 08:39:41;;;;;;;8.23;2.88;;;17.00;50.20;;;;;;5036352;28;20033;-71
2022/08/31 08:42:10;;;;;;;8.02;1.98;;;17.00;49.70;;;;;;5027587;28;20424;-72
2022/08/31 08:44:37;;;;;;;4.93;1.92;;;17.10;49.40;;;;;;5035396;28;20037;-71
2022/08/31 08:47:13;;;;;;;7.90;2.80;;;17.10;49.40;;;;;;5034568;28;20057;-72
2022/08/31 08:49:49;;;;;;;8.52;3.22;;;17.20;49.10;;;;;;5031171;28;20465;-71
2022/08/31 08:52:27;;;;;;;6.95;2.80;;;17.30;49.20;;;;;;5037154;28;20389;-71
2022/08/31 08:54:58;;;;;;;8.55;2.50;;;17.30;48.10;;;;;;5033704;28;20032;-71
2022/08/31 08:57:31;;;;;;;8.23;4.07;;;17.40;47.70;;;;;;5035134;28;20028;-72
2022/08/31 09:00:02;;;;;;;8.43;3.15;;;17.50;46.90;;;;;;5034081;28;20073;-72
2022/08/31 09:03:29;;;;;;;8.32;3.50;;;17.50;46.40;;;;;;5029205;28;20033;-71
2022/08/31 09:06:08;;;;;;;6.78;2.88;;;17.60;46.20;;;;;;4984915;28;20425;-72
2022/08/31 09:08:46;;;;;;;9.23;5.22;;;17.70;45.90;;;;;;4983188;28;20046;-71
2022/08/31 09:11:45;;;;;;;6.15;2.97;;;17.70;46.10;;;;;;5020564;28;20492;-71
2022/08/31 09:14:31;;;;;;;8.88;3.40;;;17.80;45.80;;;;;;5027528;28;20477;-71
2022/08/31 09:17:33;;;;;;;8.80;2.75;;;17.90;45.70;;;;;;5032181;28;20116;-71
2022/08/31 09:20:04;;;;;;;7.28;3.28;;;18.00;45.20;;;;;;5036844;28;20072;-71
2022/08/31 09:22:51;;;;;;;6.57;3.08;;;18.00;45.70;;;;;;5033951;28;20028;-72
2022/08/31 09:25:31;;;;;;;8.25;2.67;;;18.10;45.80;;;;;;5033724;28;20044;-71
2022/08/31 09:28:01;;;;;;;9.43;3.67;;;18.20;45.20;;;;;;5032014;28;20020;-72
2022/08/31 09:30:44;;;;;;;12.32;3.42;;;18.30;45.50;;;;;;5028781;28;20572;-72
2022/08/31 09:33:26;;;;;;;7.43;3.70;;;18.40;45.90;;;;;;5020135;28;20434;-72
2022/08/31 09:36:12;;;;;;;7.28;2.50;;;18.50;45.80;;;;;;5036273;28;20136;-72
2022/08/31 09:38:40;;;;;;;9.25;3.10;;;18.60;44.50;;;;;;5034628;28;20638;-72
2022/08/31 09:41:28;;;;;;;6.60;2.92;;;18.70;44.10;;;;;;5025158;28;20025;-71
2022/08/31 09:44:15;;;;;;;8.30;3.50;;;18.80;42.80;;;;;;5031975;28;20396;-71
2022/08/31 09:46:48;;;;;;;6.95;3.38;;;18.90;43.10;;;;;;5044703;28;20017;-72
2022/08/31 09:49:25;;;;;;;9.25;2.95;;;19.00;43.00;;;;;;5031592;28;20064;-73
2022/08/31 09:51:51;;;;;;;7.93;4.15;;;19.00;43.00;;;;;;5028074;28;20029;-72
2022/08/31 09:57:10;;;;;;;5.90;2.85;;;19.20;42.20;;;;;;5035949;28;20037;-72
2022/08/31 09:59:42;;;;;;;5.88;3.35;;;19.30;41.80;;;;;;5025574;28;20068;-71
2022/08/31 10:02:21;;;;;;;6.35;3.10;;;19.40;41.20;;;;;;5031274;28;20055;-72
2022/08/31 10:04:54;;;;;;;7.85;3.10;;;19.50;39.80;;;;;;5036547;28;20040;-72
2022/08/31 10:07:30;;;;;;;4.15;2.60;;;19.50;39.50;;;;;;5031003;28;20018;-71
2022/08/31 10:10:05;;;;;;;5.13;2.70;;;19.60;39.00;;;;;;5033891;28;20123;-71
2022/08/31 10:12:59;;;;;;;7.22;2.45;;;19.70;39.00;;;;;;5031790;28;20066;-72
2022/08/31 10:15:38;;;;;;;4.50;2.55;;;19.80;39.90;;;;;;5034126;28;20092;-71
2022/08/31 10:18:21;;;;;;;9.50;2.90;;;19.90;39.30;;;;;;5033265;28;20041;-72
2022/08/31 10:20:57;;;;;;;7.18;2.30;;;20.00;39.70;;;;;;5038909;28;20097;-71
2022/08/31 10:23:33;;;;;;;3.83;2.15;;;20.10;38.90;;;;;;5037964;28;20495;-71
2022/08/31 10:26:30;;;;;;;2.67;1.60;;;20.20;37.70;;;;;;5028500;28;20036;-72
2022/08/31 10:29:03;;;;;;;5.47;2.50;;;20.30;36.90;;;;;;5028986;28;20399;-72
2022/08/31 10:31:44;;;;;;;8.98;3.53;;;20.50;36.50;;;;;;5032307;28;20029;-71
2022/08/31 10:37:14;;;;;;;5.10;1.45;;;20.60;36.60;;;;;;5028225;28;20096;-72
2022/08/31 10:39:57;;;;;;;3.20;1.20;;;20.70;36.60;;;;;;5034222;28;20076;-72
2022/08/31 10:42:36;;;;;;;0.98;0.60;;;20.80;34.40;;;;;;5031241;28;20481;-72
2022/08/31 10:45:13;;;;;;;1.85;1.00;;;20.90;34.90;;;;;;5037984;28;20090;-72
2022/08/31 10:47:46;;;;;;;2.85;0.60;;;21.00;34.80;;;;;;5028787;28;20033;-72
2022/08/31 10:50:29;;;;;;;1.92;0.90;;;21.10;34.30;;;;;;5029393;28;20033;-72
2022/08/31 10:53:21;;;;;;;2.08;0.70;;;21.20;34.10;;;;;;5032215;28;20535;-72
2022/08/31 10:56:01;;;;;;;2.28;0.68;;;21.20;34.40;;;;;;5040503;28;20029;-71
2022/08/31 10:58:46;;;;;;;1.98;0.90;;;21.30;34.70;;;;;;5032257;28;20127;-72
2022/08/31 11:01:21;;;;;;;1.30;0.60;;;21.40;33.70;;;;;;5034938;28;20029;-71
2022/08/31 11:04:13;;;;;;;;;;;21.50;34.20;;;;;;5032467;28;20079;-72
2022/08/31 11:07:00;;;;;;;3.05;0.60;;;21.60;34.20;;;;;;5034831;28;19909;-72
2022/08/31 11:09:38;;;;;;;2.25;0.80;;;21.70;34.30;;;;;;5034552;28;20433;-72
2022/08/31 11:12:17;;;;;;;2.30;0.85;;;21.70;34.00;;;;;;5030863;28;20028;-72
2022/08/31 11:15:05;;;;;;;3.40;0.65;;;21.80;34.30;;;;;;5035502;28;20044;-72
2022/08/31 11:17:50;;;;;;;5.38;0.88;;;21.80;34.50;;;;;;5032576;28;20029;-72
2022/08/31 11:20:29;;;;;;;4.43;0.80;;;21.90;34.10;;;;;;5033655;28;20520;-72
2022/08/31 11:23:14;;;;;;;1.88;0.75;;;22.00;34.50;;;;;;5035443;28;20025;-72
2022/08/31 11:26:16;;;;;;;3.50;0.80;;;22.10;34.60;;;;;;5033265;28;20052;-72
2022/08/31 11:29:14;;;;;;;2.10;1.05;;;22.20;34.40;;;;;;5036155;28;20037;-71
2022/08/31 11:31:41;;;;;;;1.52;0.60;;;22.30;32.80;;;;;;5032428;28;20524;-72
2022/08/31 11:34:21;;;;;;;1.05;0.82;;;22.30;33.20;;;;;;5025821;28;20109;-71
2022/08/31 11:37:06;;;;;;;0.57;0.40;;;22.40;33.50;;;;;;5037635;28;20116;-71
2022/08/31 11:39:40;;;;;;;0.90;0.90;;;22.50;33.60;;;;;;5032553;28;20381;-70
2022/08/31 11:42:26;;;;;;;2.33;0.80;;;22.60;33.90;;;;;;5030536;28;20401;-71
2022/08/31 11:45:05;;;;;;;4.07;1.10;;;22.70;34.00;;;;;;5045489;28;20049;-72
2022/08/31 11:47:40;;;;;;;2.00;1.02;;;22.80;34.20;;;;;;5032940;28;20021;-71
2022/08/31 11:50:21;;;;;;;2.85;1.25;;;22.80;34.20;;;;;;5035907;28;20366;-71
2022/08/31 11:52:52;;;;;;;4.45;1.08;;;22.90;33.50;;;;;;5032472;28;20120;-72
2022/08/31 11:55:44;;;;;;;2.72;0.70;;;23.00;32.70;;;;;;5027638;28;20500;-72
2022/08/31 11:58:33;;;;;;;0.90;0.65;;;23.00;32.90;;;;;;5026246;28;20129;-71
2022/08/31 12:01:01;;;;;;;2.53;0.95;;;23.10;32.60;;;;;;5029416;28;20115;-72
2022/08/31 12:04:06;;;;;;;1.20;0.52;;;23.20;31.60;;;;;;5040086;28;20029;-71
2022/08/31 12:06:35;;;;;;;2.63;0.95;;;23.30;31.70;;;;;;5043933;28;20017;-71
2022/08/31 12:09:26;;;;;;;2.67;0.90;;;23.30;31.30;;;;;;5034863;28;20025;-70
2022/08/31 12:12:06;;;;;;;2.35;0.88;;;23.40;31.30;;;;;;5052879;28;20035;-72
2022/08/31 12:14:42;;;;;;;2.05;1.20;;;23.40;31.10;;;;;;5035855;28;20082;-72
2022/08/31 12:17:29;;;;;;;1.42;0.73;;;23.50;31.20;;;;;;5033143;28;20025;-71
2022/08/31 12:20:26;;;;;;;2.05;1.88;;;23.60;31.20;;;;;;5030624;28;20539;-71
2022/08/31 12:23:36;;;;;;;2.88;1.25;;;23.60;31.10;;;;;;5039294;28;20032;-71
2022/08/31 12:26:09;;;;;;;1.73;1.10;;;23.70;31.30;;;;;;5042683;28;20028;-72
2022/08/31 12:28:54;;;;;;;6.13;1.05;;;23.70;31.30;;;;;;5041918;28;20049;-71
2022/08/31 12:31:20;;;;;;;1.48;0.85;;;23.80;31.20;;;;;;5037556;28;20503;-71
2022/08/31 12:33:58;;;;;;;2.78;1.05;;;23.80;31.30;;;;;;5038574;28;20032;-71
2022/08/31 12:36:28;;;;;;;1.52;0.80;;;23.80;31.50;;;;;;5034590;28;20049;-72
2022/08/31 12:39:23;;;;;;;3.42;0.75;;;23.80;31.30;;;;;;5034725;28;20041;-72
2022/08/31 12:41:59;;;;;;;4.20;0.82;;;23.90;31.10;;;;;;5040178;28;20061;-71
2022/08/31 12:44:30;;;;;;;1.15;0.90;;;23.90;31.40;;;;;;5033618;28;20047;-72
2022/08/31 12:47:10;;;;;;;1.15;0.75;;;24.00;31.50;;;;;;5036689;28;20025;-72
2022/08/31 12:49:53;;;;;;;3.42;0.90;;;24.00;31.40;;;;;;5030889;28;20112;-72
2022/08/31 12:52:22;;;;;;;3.03;1.27;;;24.00;31.40;;;;;;5036385;28;20040;-71
2022/08/31 12:54:55;;;;;;;2.25;0.70;;;24.10;31.50;;;;;;5037077;28;20055;-71
2022/08/31 12:57:46;;;;;;;2.10;0.98;;;24.10;31.50;;;;;;5037689;28;20014;-72
2022/08/31 13:00:27;;;;;;;1.85;0.70;;;24.10;31.20;;;;;;5037886;28;20037;-71
2022/08/31 13:03:15;;;;;;;1.77;0.65;;;24.10;31.30;;;;;;5040236;28;20041;-71
2022/08/31 13:05:45;;;;;;;3.65;1.17;;;24.20;31.50;;;;;;5035617;28;20028;-71
2022/08/31 13:08:23;;;;;;;1.77;0.95;;;24.20;31.10;;;;;;5028879;28;20034;-71
2022/08/31 13:10:50;;;;;;;3.05;0.90;;;24.20;30.70;;;;;;5034852;28;20029;-72
2022/08/31 13:13:27;;;;;;;1.63;0.90;;;24.20;30.80;;;;;;5034468;28;20469;-71
2022/08/31 13:16:06;;;;;;;2.63;1.15;;;24.20;30.70;;;;;;5032488;28;20111;-71
2022/08/31 13:18:34;;;;;;;0.82;0.60;;;24.30;30.60;;;;;;5036743;28;20141;-71
2022/08/31 13:21:05;;;;;;;4.18;1.63;;;24.30;30.60;;;;;;5028679;28;20088;-71
2022/08/31 13:23:41;;;;;;;3.38;1.77;;;24.30;31.10;;;;;;5035582;28;20018;-71
2022/08/31 13:26:17;;;;;;;3.50;1.58;;;24.30;31.60;;;;;;5038430;28;20025;-71